Terminal Aerodrome Forecast
Issued by NWS Charleston, WV

Current Version | Previous Version | Graphics & Text | Print | Product List | Glossary On
Versions: 1 2 3 4 5 6 7 8 9 10 11 12 13 14 15 16 17 18 19 20 21 22 23 24 25
253
FTUS41 KRLX 260828 AAA
TAFEKN
TAF AMD
KEKN 260828Z 2608/2706 25010G15KT P6SM SKC WS010/30020KT
     FM261300 25013G22KT 2SM TSRA BKN030CB
     FM261500 27010G17KT 5SM -SHRA VCTS BKN030CB
     FM262200 27010G17KT 4SM -SHRA VCTS BKN030CB
     FM270100 25006KT 4SM -SHRA VCTS BKN025CB=

USA.gov is the U.S. government's official web portal to all federal, state and local government web resources and services.